Airfield :
LOGIN :

Register | Disclaimer

   EN    FR    IT 

 










Legend :    VFR   Marginal VFR   IFR   Intensive IFR   Very Intensive IFR
Visi :
Ceiling :
>= 8 km
>= 3000ft
5 to 8 km
1000 to 3000 ft
1500m to 5 km
500 to 1000 ft
800 to 1500m
200 to 500 ft
< 800m
< 200 ft
Symbols :   Thunderstorms  Fog  Heavy snow  Heavy precipitations  Wind > 20 kt
SIGMETs :     Misc.  Thunderstorms  Icing  Turbulence  Mountain Waves  Volcanic Ashes






- Airport Elevation : 74 ft
- IATA code : MRS


LFML - Marseille / Marignane

CURRENT METAR :
  • 121300Z AUTO 30008KT CAVOK 10/01 Q1009

EXPIRED METARs :
  • 121230Z AUTO 29009KT CAVOK 10/03 Q1010
  • 121200Z AUTO 29009KT CAVOK 10/02 Q1010
  • 121130Z AUTO 30008KT CAVOK 09/02 Q1011
  • 121100Z AUTO 29009KT CAVOK 09/02 Q1011
  • 121030Z AUTO 29011KT 9999 VV/// 08/02 Q1012

TAF TAF LFML
Valid from the 12 at 03:00 until the 13 at 09:00 UTC


120200Z 1203/1309 33010KT CAVOK TX09/1214Z TN04/1206Z
BECMG 1216/1218 09006KT
BECMG 1219/1221 BKN010 BKN030
TEMPO 1221/1306 4000 RA
BECMG 1307/1309 26015G30KT
ATIS : +33 4 42 31 15 15



MET'MAP, your aeronautical weather chart ! - Copyright ORBIFLY December 2007 - Disclaimer

ORBIFLY MET'MAP TEAM :

Programming & Development : Alexandra Zaïnal
Concept & original design : Baudouin d'Aumeries
Assistance for programming : Marc-Olivier Méhu
Technical & hardware support : Manuel Goepfert

Contact : metmap@orbifly.com




SOURCES & CREDITS :

   NOAA